The Baker Show — WDJ6474 — position and weather

sailwx.info

Track history (hours):
 
Tides and Currents Weather Stations Pressure Air Temp Water Temp Dewpoint Dewpoint Depression Visibility Wind Speed Wind Dir Waves Ship Positions

The Baker Show

Owner: Baker, Keith, Beverly, MA. More information available from US FCC via Universal Licensing System and Coast Guard Vessel Documentation Center.

Last reported at 2017-Sep-02 19:13 UTC. Time now 2017-Nov-23 03:52 UTC.
Position N 42°33' W 070°47'.
Warning: this ship's position is months out of date.

Length 7 m.

Type: Pleasure craft. MMSI: 367798110.

Date/timePositionNaut miles runAvg speedWind from/ knotsBaromVisibWave heightAir tempDewpointWater temp
2017-Sep-02 19:13N 42°33' W 070°47'418.0
2017-Sep-02 19:00N 42°34' W 070°42'8 6.1
2017-Sep-02 17:42N 42°41' W 070°37'316.3
2017-Sep-02 17:30N 42°38' W 070°35'4 7.3
2017-Sep-02 17:00N 42°35' W 070°38'  
2017-Aug-27 20:30N 42°31' W 070°50'2 0.1
2017-Aug-26 22:13N 42°32' W 070°52'3 4.3
2017-Aug-26 21:33N 42°30' W 070°49'0 0.1
2017-Aug-26 21:30N 42°30' W 070°49'0 0.1
2017-Aug-26 20:40N 42°31' W 070°49'0 0.1
2017-Aug-26 20:30N 42°31' W 070°49'0 0.1
2017-Aug-26 19:57N 42°31' W 070°49'1 1.8
2017-Aug-26 19:29N 42°30' W 070°50'  
Track history (hours):
 
Tides and Currents Weather Stations Pressure Air Temp Water Temp Dewpoint Dewpoint Depression Visibility Wind Speed Wind Dir Waves Ship Positions

The Baker Show

Owner: Baker, Keith, Beverly, MA. More information available from US FCC via Universal Licensing System and Coast Guard Vessel Documentation Center.

Last reported at 2017-Sep-02 19:13 UTC. Time now 2017-Nov-23 03:52 UTC.
Position N 42°33' W 070°47'.
Warning: this ship's position is months out of date.

Length 7 m.

Type: Pleasure craft. MMSI: 367798110.

Date/timePositionNaut miles runAvg speedWind from/ knotsBaromVisibWave heightAir tempDewpointWater temp
2017-Sep-02 19:13N 42°33' W 070°47'418.0
2017-Sep-02 19:00N 42°34' W 070°42'8 6.1
2017-Sep-02 17:42N 42°41' W 070°37'316.3
2017-Sep-02 17:30N 42°38' W 070°35'4 7.3
2017-Sep-02 17:00N 42°35' W 070°38'  
2017-Aug-27 20:30N 42°31' W 070°50'2 0.1
2017-Aug-26 22:13N 42°32' W 070°52'3 4.3
2017-Aug-26 21:33N 42°30' W 070°49'0 0.1
2017-Aug-26 21:30N 42°30' W 070°49'0 0.1
2017-Aug-26 20:40N 42°31' W 070°49'0 0.1
2017-Aug-26 20:30N 42°31' W 070°49'0 0.1
2017-Aug-26 19:57N 42°31' W 070°49'1 1.8
2017-Aug-26 19:29N 42°30' W 070°50'  

Dump ship's entire track history